sensor_id;sensor_type;location;lat;lon;timestamp;temperature;humidity
67893;DHT22;54688;52.376;16.744;2024-03-08T00:00:48;-1.9;79.3
67893;DHT22;54688;52.376;16.744;2024-03-08T00:04:18;-1.9;79.4
67893;DHT22;54688;52.376;16.744;2024-03-08T00:07:21;-1.9;79.5
67893;DHT22;54688;52.376;16.744;2024-03-08T00:10:23;-1.9;79.4
67893;DHT22;54688;52.376;16.744;2024-03-08T00:13:25;-1.9;79.4
67893;DHT22;54688;52.376;16.744;2024-03-08T00:16:27;-1.9;79.4
67893;DHT22;54688;52.376;16.744;2024-03-08T00:19:30;-2;79.2
67893;DHT22;54688;52.376;16.744;2024-03-08T00:22:32;-2;79.2
67893;DHT22;54688;52.376;16.744;2024-03-08T00:25:34;-2;79.1
67893;DHT22;54688;52.376;16.744;2024-03-08T00:28:37;-2.1;79.2
67893;DHT22;54688;52.376;16.744;2024-03-08T00:31:39;-2.1;79.3
67893;DHT22;54688;52.376;16.744;2024-03-08T00:34:41;-2.1;79.3
67893;DHT22;54688;52.376;16.744;2024-03-08T00:37:43;-2.2;79.2
67893;DHT22;54688;52.376;16.744;2024-03-08T00:40:46;-2.2;79.2
67893;DHT22;54688;52.376;16.744;2024-03-08T00:43:47;-2.3;79.2
67893;DHT22;54688;52.376;16.744;2024-03-08T00:46:50;-2.3;79.2
67893;DHT22;54688;52.376;16.744;2024-03-08T00:49:52;-2.3;79.1
67893;DHT22;54688;52.376;16.744;2024-03-08T00:52:54;-2.3;79.2
67893;DHT22;54688;52.376;16.744;2024-03-08T00:55:56;-2.3;79.3
67893;DHT22;54688;52.376;16.744;2024-03-08T00:58:58;-2.3;79.3
67893;DHT22;54688;52.376;16.744;2024-03-08T01:02:02;-2.3;79.3
67893;DHT22;54688;52.376;16.744;2024-03-08T01:05:04;-2.4;79.1
67893;DHT22;54688;52.376;16.744;2024-03-08T01:08:08;-2.4;79
67893;DHT22;54688;52.376;16.744;2024-03-08T01:11:12;-2.5;79
67893;DHT22;54688;52.376;16.744;2024-03-08T01:14:14;-2.5;79
67893;DHT22;54688;52.376;16.744;2024-03-08T01:20:15;-2.6;79.1
67893;DHT22;54688;52.376;16.744;2024-03-08T01:23:17;-2.6;79.3
67893;DHT22;54688;52.376;16.744;2024-03-08T01:26:19;-2.6;79.4
67893;DHT22;54688;52.376;16.744;2024-03-08T01:29:21;-2.7;79.4
67893;DHT22;54688;52.376;16.744;2024-03-08T01:32:23;-2.6;79.5
67893;DHT22;54688;52.376;16.744;2024-03-08T01:35:25;-2.7;79.6
67893;DHT22;54688;52.376;16.744;2024-03-08T01:38:27;-2.7;79.6
67893;DHT22;54688;52.376;16.744;2024-03-08T01:41:30;-2.7;79.5
67893;DHT22;54688;52.376;16.744;2024-03-08T01:44:32;-2.7;79.5
67893;DHT22;54688;52.376;16.744;2024-03-08T01:47:35;-2.8;79.4
67893;DHT22;54688;52.376;16.744;2024-03-08T01:50:38;-2.8;79.4
67893;DHT22;54688;52.376;16.744;2024-03-08T01:53:41;-2.9;79.4
67893;DHT22;54688;52.376;16.744;2024-03-08T01:56:47;-2.9;79.4
67893;DHT22;54688;52.376;16.744;2024-03-08T01:59:51;-2.9;79.4
67893;DHT22;54688;52.376;16.744;2024-03-08T02:02:53;-3;79.5
67893;DHT22;54688;52.376;16.744;2024-03-08T02:05:55;-2.9;79.7
67893;DHT22;54688;52.376;16.744;2024-03-08T02:08:58;-3;79.5
67893;DHT22;54688;52.376;16.744;2024-03-08T02:12:01;-3;79.5
67893;DHT22;54688;52.376;16.744;2024-03-08T02:15:03;-3;79.5
67893;DHT22;54688;52.376;16.744;2024-03-08T02:18:06;-3.1;79.2
67893;DHT22;54688;52.376;16.744;2024-03-08T02:21:07;-3.1;79
67893;DHT22;54688;52.376;16.744;2024-03-08T02:24:10;-3.1;78.9
67893;DHT22;54688;52.376;16.744;2024-03-08T02:27:12;-3.2;78.9
67893;DHT22;54688;52.376;16.744;2024-03-08T02:30:14;-3.2;78.9
67893;DHT22;54688;52.376;16.744;2024-03-08T02:36:16;-3.3;78.6
67893;DHT22;54688;52.376;16.744;2024-03-08T02:39:18;-3.3;78.6
67893;DHT22;54688;52.376;16.744;2024-03-08T02:42:20;-3.4;78.6
67893;DHT22;54688;52.376;16.744;2024-03-08T02:45:22;-3.4;78.5
67893;DHT22;54688;52.376;16.744;2024-03-08T02:48:24;-3.5;78.2
67893;DHT22;54688;52.376;16.744;2024-03-08T02:51:27;-3.5;78
67893;DHT22;54688;52.376;16.744;2024-03-08T02:54:31;-3.5;78
67893;DHT22;54688;52.376;16.744;2024-03-08T02:57:33;-3.6;78
67893;DHT22;54688;52.376;16.744;2024-03-08T03:00:35;-3.7;78.1
67893;DHT22;54688;52.376;16.744;2024-03-08T03:06:37;-3.7;78.2
67893;DHT22;54688;52.376;16.744;2024-03-08T03:09:39;-3.7;78.3
67893;DHT22;54688;52.376;16.744;2024-03-08T03:18:39;-3.8;78
67893;DHT22;54688;52.376;16.744;2024-03-08T03:21:42;-3.8;78
67893;DHT22;54688;52.376;16.744;2024-03-08T03:24:44;-3.9;77.8
67893;DHT22;54688;52.376;16.744;2024-03-08T03:27:46;-4;77.7
67893;DHT22;54688;52.376;16.744;2024-03-08T03:30:49;-4;77.7
67893;DHT22;54688;52.376;16.744;2024-03-08T03:33:51;-4;77.9
67893;DHT22;54688;52.376;16.744;2024-03-08T03:36:53;-4;78
67893;DHT22;54688;52.376;16.744;2024-03-08T03:39:56;-4;78.2
67893;DHT22;54688;52.376;16.744;2024-03-08T03:42:58;-4;78.3
67893;DHT22;54688;52.376;16.744;2024-03-08T03:46:00;-4.1;78.1
67893;DHT22;54688;52.376;16.744;2024-03-08T03:49:02;-4;78.3
67893;DHT22;54688;52.376;16.744;2024-03-08T03:52:05;-4.1;78.3
67893;DHT22;54688;52.376;16.744;2024-03-08T03:55:07;-4.1;78.7
67893;DHT22;54688;52.376;16.744;2024-03-08T03:58:10;-4.1;78.6
67893;DHT22;54688;52.376;16.744;2024-03-08T04:01:12;-4.1;78.5
67893;DHT22;54688;52.376;16.744;2024-03-08T04:04:14;-4.1;78.3
67893;DHT22;54688;52.376;16.744;2024-03-08T04:07:16;-4.1;78
67893;DHT22;54688;52.376;16.744;2024-03-08T04:10:18;-4.1;78
67893;DHT22;54688;52.376;16.744;2024-03-08T04:13:21;-4.1;78.3
67893;DHT22;54688;52.376;16.744;2024-03-08T04:16:23;-4.1;78.5
67893;DHT22;54688;52.376;16.744;2024-03-08T04:19:25;-4.1;78.8
67893;DHT22;54688;52.376;16.744;2024-03-08T04:22:27;-4.1;78.8
67893;DHT22;54688;52.376;16.744;2024-03-08T04:25:29;-4.1;78.5
67893;DHT22;54688;52.376;16.744;2024-03-08T04:28:32;-4.1;78.4
67893;DHT22;54688;52.376;16.744;2024-03-08T04:31:34;-4.1;78.6
67893;DHT22;54688;52.376;16.744;2024-03-08T04:34:36;-4.2;78.5
67893;DHT22;54688;52.376;16.744;2024-03-08T04:37:38;-4.2;78.6
67893;DHT22;54688;52.376;16.744;2024-03-08T04:40:40;-4.2;78.4
67893;DHT22;54688;52.376;16.744;2024-03-08T04:43:42;-4.2;78.6
67893;DHT22;54688;52.376;16.744;2024-03-08T04:46:44;-4.3;78.3
67893;DHT22;54688;52.376;16.744;2024-03-08T04:49:46;-4.3;78.1
67893;DHT22;54688;52.376;16.744;2024-03-08T04:52:48;-4.4;77.8
67893;DHT22;54688;52.376;16.744;2024-03-08T04:55:50;-4.4;77.7
67893;DHT22;54688;52.376;16.744;2024-03-08T04:58:52;-4.5;77.4
67893;DHT22;54688;52.376;16.744;2024-03-08T05:01:55;-4.6;77.4
67893;DHT22;54688;52.376;16.744;2024-03-08T05:04:57;-4.5;77.4
67893;DHT22;54688;52.376;16.744;2024-03-08T05:07:59;-4.6;77.4
67893;DHT22;54688;52.376;16.744;2024-03-08T05:11:02;-4.6;77.3
67893;DHT22;54688;52.376;16.744;2024-03-08T05:14:04;-4.6;77
67893;DHT22;54688;52.376;16.744;2024-03-08T05:17:06;-4.7;76.7
67893;DHT22;54688;52.376;16.744;2024-03-08T05:20:09;-4.7;77.3
67893;DHT22;54688;52.376;16.744;2024-03-08T05:23:11;-4.7;77.4
67893;DHT22;54688;52.376;16.744;2024-03-08T05:26:13;-4.8;77.2
67893;DHT22;54688;52.376;16.744;2024-03-08T05:29:15;-4.8;77
67893;DHT22;54688;52.376;16.744;2024-03-08T05:32:17;-4.8;77
67893;DHT22;54688;52.376;16.744;2024-03-08T05:35:19;-4.8;77.2
67893;DHT22;54688;52.376;16.744;2024-03-08T05:38:23;-4.8;77.4
67893;DHT22;54688;52.376;16.744;2024-03-08T05:41:25;-4.9;77.1
67893;DHT22;54688;52.376;16.744;2024-03-08T05:47:27;-4.9;77.3
67893;DHT22;54688;52.376;16.744;2024-03-08T05:50:29;-4.9;77.3
67893;DHT22;54688;52.376;16.744;2024-03-08T05:53:31;-4.9;77.3
67893;DHT22;54688;52.376;16.744;2024-03-08T05:56:33;-4.9;77.4
67893;DHT22;54688;52.376;16.744;2024-03-08T05:59:35;-4.9;77.4
67893;DHT22;54688;52.376;16.744;2024-03-08T06:02:37;-4.9;77.5
67893;DHT22;54688;52.376;16.744;2024-03-08T06:05:39;-4.9;77.6
67893;DHT22;54688;52.376;16.744;2024-03-08T06:08:41;-4.9;77.8
67893;DHT22;54688;52.376;16.744;2024-03-08T06:11:43;-4.8;78.4
67893;DHT22;54688;52.376;16.744;2024-03-08T06:14:45;-4.7;79.8
67893;DHT22;54688;52.376;16.744;2024-03-08T06:17:48;-4.6;80.4
67893;DHT22;54688;52.376;16.744;2024-03-08T06:20:50;-4.5;80.3
67893;DHT22;54688;52.376;16.744;2024-03-08T06:23:53;-4.4;80.2
67893;DHT22;54688;52.376;16.744;2024-03-08T06:26:55;-4.4;79.9
67893;DHT22;54688;52.376;16.744;2024-03-08T06:29:57;-4.3;80
67893;DHT22;54688;52.376;16.744;2024-03-08T06:33:00;-4.3;80
67893;DHT22;54688;52.376;16.744;2024-03-08T06:36:02;-4.3;79.9
67893;DHT22;54688;52.376;16.744;2024-03-08T06:39:04;-4.2;79.7
67893;DHT22;54688;52.376;16.744;2024-03-08T06:42:07;-4.2;80
67893;DHT22;54688;52.376;16.744;2024-03-08T06:45:09;-4.1;80.6
67893;DHT22;54688;52.376;16.744;2024-03-08T06:48:12;-4;80.8
67893;DHT22;54688;52.376;16.744;2024-03-08T06:51:14;-3.9;81.2
67893;DHT22;54688;52.376;16.744;2024-03-08T06:54:16;-3.8;81.7
67893;DHT22;54688;52.376;16.744;2024-03-08T06:57:18;-3.6;81.6
67893;DHT22;54688;52.376;16.744;2024-03-08T07:00:21;-3.6;81.2
67893;DHT22;54688;52.376;16.744;2024-03-08T07:03:24;-3.6;81.2
67893;DHT22;54688;52.376;16.744;2024-03-08T07:06:26;-3.5;81.3
67893;DHT22;54688;52.376;16.744;2024-03-08T07:09:28;-3.4;81.4
67893;DHT22;54688;52.376;16.744;2024-03-08T07:12:30;-3.4;81.3
67893;DHT22;54688;52.376;16.744;2024-03-08T07:15:32;-3.3;81.1
67893;DHT22;54688;52.376;16.744;2024-03-08T07:18:35;-3.3;81.2
67893;DHT22;54688;52.376;16.744;2024-03-08T07:21:38;-3.1;81.7
67893;DHT22;54688;52.376;16.744;2024-03-08T07:24:40;-3;82.3
67893;DHT22;54688;52.376;16.744;2024-03-08T07:27:42;-2.9;82
67893;DHT22;54688;52.376;16.744;2024-03-08T07:30:45;-2.8;82.2
67893;DHT22;54688;52.376;16.744;2024-03-08T07:33:47;-2.7;82.1
67893;DHT22;54688;52.376;16.744;2024-03-08T07:36:49;-2.6;82.3
67893;DHT22;54688;52.376;16.744;2024-03-08T07:39:52;-2.5;82.1
67893;DHT22;54688;52.376;16.744;2024-03-08T07:42:54;-2.4;82.2
67893;DHT22;54688;52.376;16.744;2024-03-08T07:45:56;-2.3;82.5
67893;DHT22;54688;52.376;16.744;2024-03-08T07:49:00;-2.2;82.3
67893;DHT22;54688;52.376;16.744;2024-03-08T07:52:03;-2.1;82.4
67893;DHT22;54688;52.376;16.744;2024-03-08T07:55:05;-2;82.3
67893;DHT22;54688;52.376;16.744;2024-03-08T07:58:07;-2;82.1
67893;DHT22;54688;52.376;16.744;2024-03-08T08:01:15;-1.9;82.3
67893;DHT22;54688;52.376;16.744;2024-03-08T08:04:18;-1.8;82.5
67893;DHT22;54688;52.376;16.744;2024-03-08T08:07:20;-1.7;82.4
67893;DHT22;54688;52.376;16.744;2024-03-08T08:10:22;-1.6;82.5
67893;DHT22;54688;52.376;16.744;2024-03-08T08:13:24;-1.5;82.7
67893;DHT22;54688;52.376;16.744;2024-03-08T08:16:26;-1.4;82.5
67893;DHT22;54688;52.376;16.744;2024-03-08T08:19:28;-1.3;82.2
67893;DHT22;54688;52.376;16.744;2024-03-08T08:22:31;-1.3;82.2
67893;DHT22;54688;52.376;16.744;2024-03-08T08:25:33;-1.2;82.3
67893;DHT22;54688;52.376;16.744;2024-03-08T08:28:36;-1.1;82.1
67893;DHT22;54688;52.376;16.744;2024-03-08T08:31:38;-1;82.3
67893;DHT22;54688;52.376;16.744;2024-03-08T08:34:40;-0.9;82.3
67893;DHT22;54688;52.376;16.744;2024-03-08T08:37:42;-0.8;82.6
67893;DHT22;54688;52.376;16.744;2024-03-08T08:40:45;-0.7;82.4
67893;DHT22;54688;52.376;16.744;2024-03-08T08:43:46;-0.6;82.3
67893;DHT22;54688;52.376;16.744;2024-03-08T08:46:48;-0.5;82.2
67893;DHT22;54688;52.376;16.744;2024-03-08T08:49:50;-0.4;82.2
67893;DHT22;54688;52.376;16.744;2024-03-08T08:52:52;-0.4;81.9
67893;DHT22;54688;52.376;16.744;2024-03-08T08:55:54;-0.2;82.1
67893;DHT22;54688;52.376;16.744;2024-03-08T08:58:56;-0.2;82
67893;DHT22;54688;52.376;16.744;2024-03-08T09:01:58;-0.1;82.3
67893;DHT22;54688;52.376;16.744;2024-03-08T09:05:00;0;82
67893;DHT22;54688;52.376;16.744;2024-03-08T09:11:02;0.2;82.1
67893;DHT22;54688;52.376;16.744;2024-03-08T09:14:05;0.3;81.7
67893;DHT22;54688;52.376;16.744;2024-03-08T09:17:07;0.4;81.5
67893;DHT22;54688;52.376;16.744;2024-03-08T09:20:10;0.6;81.3
67893;DHT22;54688;52.376;16.744;2024-03-08T09:23:12;0.7;81.1
67893;DHT22;54688;52.376;16.744;2024-03-08T09:26:15;0.8;80.7
67893;DHT22;54688;52.376;16.744;2024-03-08T09:29:18;0.9;80.2
67893;DHT22;54688;52.376;16.744;2024-03-08T09:32:20;1;79.7
67893;DHT22;54688;52.376;16.744;2024-03-08T09:38:22;1.2;78.9
67893;DHT22;54688;52.376;16.744;2024-03-08T09:41:25;1.2;78.1
67893;DHT22;54688;52.376;16.744;2024-03-08T09:44:27;1.4;77.8
67893;DHT22;54688;52.376;16.744;2024-03-08T09:47:30;1.5;77.1
67893;DHT22;54688;52.376;16.744;2024-03-08T09:50:34;1.6;76.3
67893;DHT22;54688;52.376;16.744;2024-03-08T09:53:37;1.7;75.4
67893;DHT22;54688;52.376;16.744;2024-03-08T09:56:39;1.8;74.7
67893;DHT22;54688;52.376;16.744;2024-03-08T09:59:43;1.9;74.3
67893;DHT22;54688;52.376;16.744;2024-03-08T10:02:45;1.9;73.4
67893;DHT22;54688;52.376;16.744;2024-03-08T10:05:47;2;72.7
67893;DHT22;54688;52.376;16.744;2024-03-08T10:11:49;2.1;71.4
67893;DHT22;54688;52.376;16.744;2024-03-08T10:14:52;2.2;71
67893;DHT22;54688;52.376;16.744;2024-03-08T10:17:56;2.3;70.2
67893;DHT22;54688;52.376;16.744;2024-03-08T10:21:02;2.4;69.1
67893;DHT22;54688;52.376;16.744;2024-03-08T10:24:07;2.5;68.4
67893;DHT22;54688;52.376;16.744;2024-03-08T10:27:12;2.6;68.2
67893;DHT22;54688;52.376;16.744;2024-03-08T10:30:14;2.7;67.9
67893;DHT22;54688;52.376;16.744;2024-03-08T10:33:18;2.8;67.4
67893;DHT22;54688;52.376;16.744;2024-03-08T10:36:20;2.9;67.2
67893;DHT22;54688;52.376;16.744;2024-03-08T10:39:22;2.9;66.8
67893;DHT22;54688;52.376;16.744;2024-03-08T10:42:27;3;66.5
67893;DHT22;54688;52.376;16.744;2024-03-08T10:45:31;3;65.7
67893;DHT22;54688;52.376;16.744;2024-03-08T10:48:37;3.1;65.5
67893;DHT22;54688;52.376;16.744;2024-03-08T10:51:45;3.1;65.6
67893;DHT22;54688;52.376;16.744;2024-03-08T10:54:48;3.2;65
67893;DHT22;54688;52.376;16.744;2024-03-08T10:57:50;3.3;64.7
67893;DHT22;54688;52.376;16.744;2024-03-08T11:00:53;3.3;64.5
67893;DHT22;54688;52.376;16.744;2024-03-08T11:03:57;3.4;64
67893;DHT22;54688;52.376;16.744;2024-03-08T11:07:00;3.5;63.9
67893;DHT22;54688;52.376;16.744;2024-03-08T11:10:03;3.5;63.8
67893;DHT22;54688;52.376;16.744;2024-03-08T11:13:08;3.6;63.3
67893;DHT22;54688;52.376;16.744;2024-03-08T11:16:38;3.6;63
67893;DHT22;54688;52.376;16.744;2024-03-08T11:19:45;3.7;62.8
67893;DHT22;54688;52.376;16.744;2024-03-08T11:22:48;3.8;63
67893;DHT22;54688;52.376;16.744;2024-03-08T11:25:52;3.9;63
67893;DHT22;54688;52.376;16.744;2024-03-08T11:28:54;4;62.9
67893;DHT22;54688;52.376;16.744;2024-03-08T11:32:03;4.1;62.3
67893;DHT22;54688;52.376;16.744;2024-03-08T11:35:06;4.1;62.3
67893;DHT22;54688;52.376;16.744;2024-03-08T11:38:09;4.2;62.1
67893;DHT22;54688;52.376;16.744;2024-03-08T11:41:11;4.2;61.1
67893;DHT22;54688;52.376;16.744;2024-03-08T11:44:13;4.4;61.2
67893;DHT22;54688;52.376;16.744;2024-03-08T11:47:16;4.4;61.5
67893;DHT22;54688;52.376;16.744;2024-03-08T11:50:18;4.5;61.4
67893;DHT22;54688;52.376;16.744;2024-03-08T11:53:21;4.6;60.6
67893;DHT22;54688;52.376;16.744;2024-03-08T11:56:24;4.7;60.5
67893;DHT22;54688;52.376;16.744;2024-03-08T11:59:27;4.8;60
67893;DHT22;54688;52.376;16.744;2024-03-08T12:02:29;4.9;59.8
67893;DHT22;54688;52.376;16.744;2024-03-08T12:05:31;5;59.6
67893;DHT22;54688;52.376;16.744;2024-03-08T12:08:33;5.1;59.5
67893;DHT22;54688;52.376;16.744;2024-03-08T12:11:35;5.1;59.4
67893;DHT22;54688;52.376;16.744;2024-03-08T12:14:38;5.2;59.3
67893;DHT22;54688;52.376;16.744;2024-03-08T12:17:40;5.3;59.3
67893;DHT22;54688;52.376;16.744;2024-03-08T12:20:42;5.4;58.7
67893;DHT22;54688;52.376;16.744;2024-03-08T12:23:44;5.5;58.4
67893;DHT22;54688;52.376;16.744;2024-03-08T12:26:47;5.6;57.9
67893;DHT22;54688;52.376;16.744;2024-03-08T12:29:49;5.8;57.8
67893;DHT22;54688;52.376;16.744;2024-03-08T12:32:52;5.8;57
67893;DHT22;54688;52.376;16.744;2024-03-08T12:35:55;6;56.1
67893;DHT22;54688;52.376;16.744;2024-03-08T12:38:58;6.1;56.1
67893;DHT22;54688;52.376;16.744;2024-03-08T12:42:00;6.2;55.8
67893;DHT22;54688;52.376;16.744;2024-03-08T12:45:03;6.4;56
67893;DHT22;54688;52.376;16.744;2024-03-08T12:48:11;6.5;55.3
67893;DHT22;54688;52.376;16.744;2024-03-08T12:51:14;6.6;54.4
67893;DHT22;54688;52.376;16.744;2024-03-08T12:54:18;6.7;54.4
67893;DHT22;54688;52.376;16.744;2024-03-08T12:57:20;6.8;54.7
67893;DHT22;54688;52.376;16.744;2024-03-08T13:00:22;7;54.6
67893;DHT22;54688;52.376;16.744;2024-03-08T13:03:25;7;53.8
67893;DHT22;54688;52.376;16.744;2024-03-08T13:06:28;7.2;53.7
67893;DHT22;54688;52.376;16.744;2024-03-08T13:09:30;7.3;53.7
67893;DHT22;54688;52.376;16.744;2024-03-08T13:12:32;7.4;53.1
67893;DHT22;54688;52.376;16.744;2024-03-08T13:15:34;7.4;53.4
67893;DHT22;54688;52.376;16.744;2024-03-08T13:18:36;7.5;52.5
67893;DHT22;54688;52.376;16.744;2024-03-08T13:21:38;7.6;52.5
67893;DHT22;54688;52.376;16.744;2024-03-08T13:24:41;7.7;51.8
67893;DHT22;54688;52.376;16.744;2024-03-08T13:27:44;7.8;52.1
67893;DHT22;54688;52.376;16.744;2024-03-08T13:30:46;7.8;51.4
67893;DHT22;54688;52.376;16.744;2024-03-08T13:33:49;7.9;51.3
67893;DHT22;54688;52.376;16.744;2024-03-08T13:36:51;8;50.7
67893;DHT22;54688;52.376;16.744;2024-03-08T13:39:54;8;51.5
67893;DHT22;54688;52.376;16.744;2024-03-08T13:42:56;8.2;51.1
67893;DHT22;54688;52.376;16.744;2024-03-08T13:45:59;8.3;50.7
67893;DHT22;54688;52.376;16.744;2024-03-08T13:49:03;8.4;49.6
67893;DHT22;54688;52.376;16.744;2024-03-08T13:52:06;8.5;49.7
67893;DHT22;54688;52.376;16.744;2024-03-08T13:55:09;8.7;50
67893;DHT22;54688;52.376;16.744;2024-03-08T13:58:11;8.7;48.8
67893;DHT22;54688;52.376;16.744;2024-03-08T14:01:13;8.9;49.2
67893;DHT22;54688;52.376;16.744;2024-03-08T14:04:15;9;49.1
67893;DHT22;54688;52.376;16.744;2024-03-08T14:07:18;9.2;48
67893;DHT22;54688;52.376;16.744;2024-03-08T14:10:20;9.3;48.4
67893;DHT22;54688;52.376;16.744;2024-03-08T14:13:22;9.5;48
67893;DHT22;54688;52.376;16.744;2024-03-08T14:16:25;9.5;48.2
67893;DHT22;54688;52.376;16.744;2024-03-08T14:19:27;9.7;47.3
67893;DHT22;54688;52.376;16.744;2024-03-08T14:22:29;9.8;47.3
67893;DHT22;54688;52.376;16.744;2024-03-08T14:25:31;10;47
67893;DHT22;54688;52.376;16.744;2024-03-08T14:28:33;10;46.3
67893;DHT22;54688;52.376;16.744;2024-03-08T14:31:35;10.2;46.6
67893;DHT22;54688;52.376;16.744;2024-03-08T14:34:38;10.2;45.7
67893;DHT22;54688;52.376;16.744;2024-03-08T14:37:40;10.4;45.6
67893;DHT22;54688;52.376;16.744;2024-03-08T14:40:43;10.5;45.7
67893;DHT22;54688;52.376;16.744;2024-03-08T14:43:45;10.5;45.9
67893;DHT22;54688;52.376;16.744;2024-03-08T14:46:48;10.6;45.2
67893;DHT22;54688;52.376;16.744;2024-03-08T14:49:50;10.7;45.5
67893;DHT22;54688;52.376;16.744;2024-03-08T14:52:52;10.7;45.7
67893;DHT22;54688;52.376;16.744;2024-03-08T14:55:54;10.8;45.2
67893;DHT22;54688;52.376;16.744;2024-03-08T14:58:56;10.8;44.9
67893;DHT22;54688;52.376;16.744;2024-03-08T15:01:59;10.9;44.4
67893;DHT22;54688;52.376;16.744;2024-03-08T15:05:02;11;44.6
67893;DHT22;54688;52.376;16.744;2024-03-08T15:08:04;11.1;44.4
67893;DHT22;54688;52.376;16.744;2024-03-08T15:11:07;11.1;43.8
67893;DHT22;54688;52.376;16.744;2024-03-08T15:14:09;11.1;44.4
67893;DHT22;54688;52.376;16.744;2024-03-08T15:17:11;11.2;44.6
67893;DHT22;54688;52.376;16.744;2024-03-08T15:20:13;11.3;44.4
67893;DHT22;54688;52.376;16.744;2024-03-08T15:23:16;11.3;44.1
67893;DHT22;54688;52.376;16.744;2024-03-08T15:26:18;11.3;44.4
67893;DHT22;54688;52.376;16.744;2024-03-08T15:29:20;11.3;44.2
67893;DHT22;54688;52.376;16.744;2024-03-08T15:32:22;11.5;43.8
67893;DHT22;54688;52.376;16.744;2024-03-08T15:35:25;11.5;43.9
67893;DHT22;54688;52.376;16.744;2024-03-08T15:38:27;11.5;43.5
67893;DHT22;54688;52.376;16.744;2024-03-08T15:41:29;11.5;44.5
67893;DHT22;54688;52.376;16.744;2024-03-08T15:44:31;11.6;44.1
67893;DHT22;54688;52.376;16.744;2024-03-08T15:47:33;11.6;44.3
67893;DHT22;54688;52.376;16.744;2024-03-08T15:50:35;11.5;44.9
67893;DHT22;54688;52.376;16.744;2024-03-08T15:53:38;11.4;44.4
67893;DHT22;54688;52.376;16.744;2024-03-08T15:56:40;11.4;44.3
67893;DHT22;54688;52.376;16.744;2024-03-08T15:59:42;11.4;43.8
67893;DHT22;54688;52.376;16.744;2024-03-08T16:02:44;11.3;43.7
67893;DHT22;54688;52.376;16.744;2024-03-08T16:05:47;11.2;43.5
67893;DHT22;54688;52.376;16.744;2024-03-08T16:08:50;11;43.9
67893;DHT22;54688;52.376;16.744;2024-03-08T16:11:52;10.9;44.5
67893;DHT22;54688;52.376;16.744;2024-03-08T16:14:54;10.7;44.6
67893;DHT22;54688;52.376;16.744;2024-03-08T16:17:57;10.5;45.3
67893;DHT22;54688;52.376;16.744;2024-03-08T16:20:59;10.2;45
67893;DHT22;54688;52.376;16.744;2024-03-08T16:24:01;10;45.8
67893;DHT22;54688;52.376;16.744;2024-03-08T16:27:04;9.7;45.9
67893;DHT22;54688;52.376;16.744;2024-03-08T16:30:07;9.5;46.5
67893;DHT22;54688;52.376;16.744;2024-03-08T16:33:11;9.2;47.3
67893;DHT22;54688;52.376;16.744;2024-03-08T16:36:13;9;48.2
67893;DHT22;54688;52.376;16.744;2024-03-08T16:39:16;8.7;48.4
67893;DHT22;54688;52.376;16.744;2024-03-08T16:42:18;8.5;49.4
67893;DHT22;54688;52.376;16.744;2024-03-08T16:45:21;8.2;50.5
67893;DHT22;54688;52.376;16.744;2024-03-08T16:48:24;8;51.5
67893;DHT22;54688;52.376;16.744;2024-03-08T16:51:27;7.8;52.1
67893;DHT22;54688;52.376;16.744;2024-03-08T16:54:29;7.6;53
67893;DHT22;54688;52.376;16.744;2024-03-08T16:57:31;7.4;53.3
67893;DHT22;54688;52.376;16.744;2024-03-08T17:00:33;7.3;54.2
67893;DHT22;54688;52.376;16.744;2024-03-08T17:03:36;7;54.6
67893;DHT22;54688;52.376;16.744;2024-03-08T17:06:38;6.9;54.5
67893;DHT22;54688;52.376;16.744;2024-03-08T17:09:40;6.7;55.8
67893;DHT22;54688;52.376;16.744;2024-03-08T17:12:42;6.6;56.8
67893;DHT22;54688;52.376;16.744;2024-03-08T17:15:45;6.4;57.3
67893;DHT22;54688;52.376;16.744;2024-03-08T17:18:47;6.2;56.9
67893;DHT22;54688;52.376;16.744;2024-03-08T17:21:49;6.1;57.4
67893;DHT22;54688;52.376;16.744;2024-03-08T17:24:51;5.9;58.1
67893;DHT22;54688;52.376;16.744;2024-03-08T17:27:53;5.7;58.2
67893;DHT22;54688;52.376;16.744;2024-03-08T17:30:57;5.6;58.5
67893;DHT22;54688;52.376;16.744;2024-03-08T17:33:59;5.5;58.5
67893;DHT22;54688;52.376;16.744;2024-03-08T17:37:01;5.3;58.3
67893;DHT22;54688;52.376;16.744;2024-03-08T17:40:04;5.2;58.5
67893;DHT22;54688;52.376;16.744;2024-03-08T17:43:07;5.1;59.9
67893;DHT22;54688;52.376;16.744;2024-03-08T17:46:10;5;59.6
67893;DHT22;54688;52.376;16.744;2024-03-08T17:49:12;4.8;60.6
67893;DHT22;54688;52.376;16.744;2024-03-08T17:52:15;4.7;61.1
67893;DHT22;54688;52.376;16.744;2024-03-08T17:55:18;4.6;61
67893;DHT22;54688;52.376;16.744;2024-03-08T17:58:20;4.5;61.6
67893;DHT22;54688;52.376;16.744;2024-03-08T18:01:23;4.4;61.4
67893;DHT22;54688;52.376;16.744;2024-03-08T18:04:26;4.2;62.2
67893;DHT22;54688;52.376;16.744;2024-03-08T18:07:28;4.1;62.5
67893;DHT22;54688;52.376;16.744;2024-03-08T18:10:31;4.1;61.8
67893;DHT22;54688;52.376;16.744;2024-03-08T18:13:34;4;62.3
67893;DHT22;54688;52.376;16.744;2024-03-08T18:16:37;3.8;63.2
67893;DHT22;54688;52.376;16.744;2024-03-08T18:19:39;3.8;63.9
67893;DHT22;54688;52.376;16.744;2024-03-08T18:22:41;3.6;63.7
67893;DHT22;54688;52.376;16.744;2024-03-08T18:25:43;3.6;64.5
67893;DHT22;54688;52.376;16.744;2024-03-08T18:28:45;3.5;65.1
67893;DHT22;54688;52.376;16.744;2024-03-08T18:31:47;3.4;64.7
67893;DHT22;54688;52.376;16.744;2024-03-08T18:34:50;3.3;65.4
67893;DHT22;54688;52.376;16.744;2024-03-08T18:37:53;3.3;65.2
67893;DHT22;54688;52.376;16.744;2024-03-08T18:40:55;3.2;65.5
67893;DHT22;54688;52.376;16.744;2024-03-08T18:43:57;3.1;66
67893;DHT22;54688;52.376;16.744;2024-03-08T18:46:59;3.1;66.7
67893;DHT22;54688;52.376;16.744;2024-03-08T18:50:02;3;66.7
67893;DHT22;54688;52.376;16.744;2024-03-08T18:53:05;2.8;66.9
67893;DHT22;54688;52.376;16.744;2024-03-08T18:56:07;2.8;66.6
67893;DHT22;54688;52.376;16.744;2024-03-08T18:59:09;2.7;67.5
67893;DHT22;54688;52.376;16.744;2024-03-08T19:02:11;2.6;68.1
67893;DHT22;54688;52.376;16.744;2024-03-08T19:05:14;2.6;67.8
67893;DHT22;54688;52.376;16.744;2024-03-08T19:08:17;2.4;68.1
67893;DHT22;54688;52.376;16.744;2024-03-08T19:11:20;2.4;68
67893;DHT22;54688;52.376;16.744;2024-03-08T19:14:22;2.3;68.4
67893;DHT22;54688;52.376;16.744;2024-03-08T19:17:24;2.2;68.4
67893;DHT22;54688;52.376;16.744;2024-03-08T19:20:29;2.2;68.2
67893;DHT22;54688;52.376;16.744;2024-03-08T19:23:33;2.1;68.6
67893;DHT22;54688;52.376;16.744;2024-03-08T19:26:35;2;69.1
67893;DHT22;54688;52.376;16.744;2024-03-08T19:29:39;1.9;69.3
67893;DHT22;54688;52.376;16.744;2024-03-08T19:32:41;1.9;69.8
67893;DHT22;54688;52.376;16.744;2024-03-08T19:35:43;1.8;69.7
67893;DHT22;54688;52.376;16.744;2024-03-08T19:38:45;1.8;69.4
67893;DHT22;54688;52.376;16.744;2024-03-08T19:41:47;1.7;69.2
67893;DHT22;54688;52.376;16.744;2024-03-08T19:44:49;1.7;69.8
67893;DHT22;54688;52.376;16.744;2024-03-08T19:47:52;1.6;70
67893;DHT22;54688;52.376;16.744;2024-03-08T19:50:54;1.5;70.3
67893;DHT22;54688;52.376;16.744;2024-03-08T19:53:56;1.5;70.5
67893;DHT22;54688;52.376;16.744;2024-03-08T19:56:58;1.4;70.6
67893;DHT22;54688;52.376;16.744;2024-03-08T20:00:01;1.3;70.5
67893;DHT22;54688;52.376;16.744;2024-03-08T20:03:04;1.3;70.8
67893;DHT22;54688;52.376;16.744;2024-03-08T20:06:07;1.2;70.7
67893;DHT22;54688;52.376;16.744;2024-03-08T20:09:09;1.1;70.9
67893;DHT22;54688;52.376;16.744;2024-03-08T20:12:11;1.1;71.5
67893;DHT22;54688;52.376;16.744;2024-03-08T20:15:14;1;71.7